Time;durP1;ratioP1;P1;durP2;ratioP2;P2;SDS_P1;SDS_P2;PMS_P1;PMS_P2;Temp;Humidity;BMP_temperature;BMP_pressure;BME280_temperature;BME280_humidity;BME280_pressure;Samples;Min_cycle;Max_cycle;Signal;HPM_P1;HPM_P2
2022/12/25 00:00:35;;;;;;;;;;;;;;;-10.42;43.83;98039.06;6298361;28;19920;-68
2022/12/25 00:03:41;;;;;;;;;;;;;;;-10.21;43.49;98036.41;6298452;28;20270;-68
2022/12/25 00:06:47;;;;;;;;;;;;;;;-10.14;43.11;98033.25;6298460;28;20309;-68
2022/12/25 00:09:50;;;;;;;;;;;;;;;-10.22;43.14;98029.56;6297783;28;19921;-67
2022/12/25 00:12:51;;;;;;;;;;;;;;;-10.38;43.58;98017.19;6298328;28;19927;-67
2022/12/25 00:15:55;;;;;;;;;;;;;;;-10.60;43.65;98020.63;6298249;28;20439;-67
2022/12/25 00:18:57;;;;;;;;;;;;;;;-10.64;43.80;98020.50;6296127;28;20303;-67
2022/12/25 00:22:01;;;;;;;;;;;;;;;-10.61;44.07;98009.59;6297917;28;20360;-68
2022/12/25 00:25:05;;;;;;;;;;;;;;;-10.38;43.63;98012.09;6297826;28;19924;-67
2022/12/25 00:28:08;;;;;;;;;;;;;;;-10.32;43.29;98007.22;6298022;28;20022;-67
2022/12/25 00:31:14;;;;;;;;;;;;;;;-10.33;43.24;98000.38;6297769;28;19927;-67
2022/12/25 00:34:15;;;;;;;;;;;;;;;-10.46;43.39;97999.94;6297722;28;20286;-68
2022/12/25 00:37:20;;;;;;;;;;;;;;;-10.12;42.86;97990.03;6297629;28;19920;-68
2022/12/25 00:40:21;;;;;;;;;;;;;;;-10.02;42.65;97995.50;6296867;28;19920;-68
2022/12/25 00:43:25;;;;;;;;;;;;;;;-10.32;43.01;97991.94;6297522;28;20030;-67
2022/12/25 00:46:28;;;;;;;;;;;;;;;-10.30;43.06;97995.38;6296622;28;19920;-67
2022/12/25 00:49:31;;;;;;;;;;;;;;;-10.19;43.17;97991.50;6296863;28;19920;-67
2022/12/25 00:52:32;;;;;;;;;;;;;;;-10.22;43.13;97999.03;6297308;28;19921;-67
2022/12/25 00:55:39;;;;;;;;;;;;;;;-10.10;43.46;97994.38;6296969;28;19978;-68
2022/12/25 00:58:45;;;;;;;;;;;;;;;-9.91;42.89;97997.53;6297009;28;19921;-67
2022/12/25 01:01:49;;;;;;;;;;;;;;;-9.80;42.98;97986.00;6296436;28;19920;-67
2022/12/25 01:04:54;;;;;;;;;;;;;;;-9.74;42.54;97983.66;6296852;28;19920;-67
2022/12/25 01:07:59;;;;;;;;;;;;;;;-9.68;42.57;97993.19;6296872;28;19920;-66
2022/12/25 01:11:05;;;;;;;;;;;;;;;-9.69;42.47;97989.78;6296593;28;19943;-67
2022/12/25 01:14:07;;;;;;;;;;;;;;;-9.82;43.03;97990.19;6296665;28;20451;-68
2022/12/25 01:17:08;;;;;;;;;;;;;;;-9.75;42.70;97975.16;6295726;28;19920;-68
2022/12/25 01:20:17;;;;;;;;;;;;;;;-9.62;43.23;97983.19;6296703;28;19920;-67
2022/12/25 01:23:20;;;;;;;;;;;;;;;-9.44;42.68;97982.91;6296726;28;20067;-68
2022/12/25 01:26:25;;;;;;;;;;;;;;;-9.16;42.75;97980.38;6296637;28;19920;-68
2022/12/25 01:29:28;;;;;;;;;;;;;;;-9.12;42.66;97982.19;6296355;28;19920;-68
2022/12/25 01:32:34;;;;;;;;;;;;;;;-9.01;42.57;97979.09;6296365;28;20322;-68
2022/12/25 01:35:38;;;;;;;;;;;;;;;-8.85;42.54;97976.19;6295213;28;19925;-68
2022/12/25 01:38:43;;;;;;;;;;;;;;;-8.86;42.20;97979.53;6295614;28;20013;-68
2022/12/25 01:41:44;;;;;;;;;;;;;;;-8.76;42.60;97980.69;6296102;28;20348;-68
2022/12/25 01:44:50;;;;;;;;;;;;;;;-9.07;42.60;97985.75;6296172;28;19920;-68
2022/12/25 01:47:51;;;;;;;;;;;;;;;-9.20;42.97;97976.00;6295757;28;20389;-68
2022/12/25 01:50:57;;;;;;;;;;;;;;;-9.20;43.02;97983.66;6296046;28;19920;-68
2022/12/25 01:54:04;;;;;;;;;;;;;;;-9.23;43.50;97983.56;6296005;28;19993;-67
2022/12/25 01:57:13;;;;;;;;;;;;;;;-9.28;43.43;97980.88;6296178;28;19920;-67
2022/12/25 02:00:15;;;;;;;;;;;;;;;-9.69;44.19;97987.22;6294976;28;19920;-68
2022/12/25 02:03:16;;;;;;;;;;;;;;;-9.59;44.22;97979.06;6295923;28;20313;-67
2022/12/25 02:06:17;;;;;;;;;;;;;;;-9.58;43.98;97978.25;6295908;28;19927;-68
2022/12/25 02:09:20;;;;;;;;;;;;;;;-9.74;44.50;97976.91;6296093;28;19921;-67
2022/12/25 02:12:27;;;;;;;;;;;;;;;-9.65;44.20;97973.78;6295827;28;19920;-66
2022/12/25 02:15:33;;;;;;;;;;;;;;;-9.56;43.87;97970.66;6295197;28;20011;-68
2022/12/25 02:18:45;;;;;;;;;;;;;;;-9.52;43.53;97972.47;6295780;28;19920;-67
2022/12/25 02:22:07;;;;;;;;;;;;;;;-9.47;43.55;97964.97;6295697;28;20370;-67
2022/12/25 02:25:26;;;;;;;;;;;;;;;-9.42;43.08;97971.09;6295660;28;20002;-68
2022/12/25 02:28:39;;;;;;;;;;;;;;;-9.31;43.04;97965.50;6294945;28;20019;-67
2022/12/25 02:31:46;;;;;;;;;;;;;;;-9.26;42.93;97963.06;6295934;28;20066;-67
2022/12/25 02:34:57;;;;;;;;;;;;;;;-9.30;42.71;97963.81;6294578;28;19920;-67
2022/12/25 02:38:04;;;;;;;;;;;;;;;-9.29;42.41;97962.97;6295094;28;19923;-67
2022/12/25 02:41:14;;;;;;;;;;;;;;;-9.44;42.53;97959.97;6295662;28;19920;-67
2022/12/25 03:08:01;;;;;;;;;;;;;;;-10.82;45.35;97952.84;6295229;28;20396;-68
2022/12/25 03:17:46;;;;;;;;;;;;;;;-10.80;45.30;97956.34;6299487;28;20370;-68
2022/12/25 03:27:33;;;;;;;;;;;;;;;-11.11;45.29;97950.13;6298650;28;19920;-68
2022/12/25 04:38:21;;;;;;;;;;;;;;;-12.52;46.50;97964.88;6297722;28;19920;-68
2022/12/25 04:41:32;;;;;;;;;;;;;;;-12.62;46.97;97966.16;6297516;28;19920;-67
2022/12/25 04:44:39;;;;;;;;;;;;;;;-12.34;46.64;97958.06;6297433;28;19927;-68
2022/12/25 04:47:42;;;;;;;;;;;;;;;-12.26;46.54;97951.59;6297261;28;19927;-68
2022/12/25 04:50:48;;;;;;;;;;;;;;;-12.48;46.95;97961.63;6297044;28;19936;-68
2022/12/25 04:53:50;;;;;;;;;;;;;;;-12.64;47.01;97959.28;6297412;28;19946;-68
2022/12/25 04:56:55;;;;;;;;;;;;;;;-12.56;47.46;97963.00;6296777;28;20015;-68
2022/12/25 04:59:56;;;;;;;;;;;;;;;-12.61;46.93;97970.41;6296759;28;20018;-68
2022/12/25 05:03:02;;;;;;;;;;;;;;;-12.71;47.63;97971.69;6296951;28;19998;-68
2022/12/25 05:06:03;;;;;;;;;;;;;;;-12.53;47.51;97971.63;6296732;28;19920;-68
2022/12/25 05:09:14;;;;;;;;;;;;;;;-12.52;47.50;97967.41;6296854;28;20373;-70
2022/12/25 05:12:17;;;;;;;;;;;;;;;-12.56;47.76;97968.09;6296586;28;19939;-68
2022/12/25 05:15:21;;;;;;;;;;;;;;;-12.59;47.31;97963.75;6296032;28;19917;-68
2022/12/25 05:18:22;;;;;;;;;;;;;;;-12.55;47.80;97973.19;6296203;28;19920;-68
2022/12/25 05:21:26;;;;;;;;;;;;;;;-12.37;47.22;97972.25;6296545;28;20022;-69
2022/12/25 05:24:29;;;;;;;;;;;;;;;-12.37;47.22;97970.56;6296629;28;19920;-68
2022/12/25 05:27:30;;;;;;;;;;;;;;;-12.41;46.99;97972.94;6296028;28;20294;-68
2022/12/25 05:30:34;;;;;;;;;;;;;;;-12.42;47.37;97974.59;6296293;28;19920;-68
2022/12/25 05:33:37;;;;;;;;;;;;;;;-12.21;47.14;97972.94;6295582;28;20350;-68
2022/12/25 05:36:41;;;;;;;;;;;;;;;-12.03;46.25;97971.97;6296149;28;19921;-68
2022/12/25 05:39:46;;;;;;;;;;;;;;;-12.02;46.28;97978.78;6296165;28;19920;-68
2022/12/25 05:42:52;;;;;;;;;;;;;;;-12.02;46.66;97978.78;6296154;28;19920;-68
2022/12/25 05:45:53;;;;;;;;;;;;;;;-12.06;46.68;97982.00;6296390;28;20275;-68
2022/12/25 05:49:01;;;;;;;;;;;;;;;-11.92;46.55;97963.13;6296155;28;19924;-68
2022/12/25 05:52:03;;;;;;;;;;;;;;;-11.66;45.76;97963.25;6295712;28;20404;-69
2022/12/25 05:55:05;;;;;;;;;;;;;;;-11.70;45.98;97962.28;6295866;28;20421;-69
2022/12/25 05:58:08;;;;;;;;;;;;;;;-11.70;46.14;97956.34;6295601;28;19928;-67
2022/12/25 06:01:17;;;;;;;;;;;;;;;-11.35;45.35;97956.03;6293845;28;20062;-67
2022/12/25 06:04:18;;;;;;;;;;;;;;;-11.37;45.11;97952.56;6293793;28;19920;-68
2022/12/25 06:07:19;;;;;;;;;;;;;;;-11.11;44.23;97945.91;6295332;28;19943;-68
2022/12/25 06:10:22;;;;;;;;;;;;;;;-11.08;43.93;97947.69;6295886;28;19943;-69
2022/12/25 06:13:27;;;;;;;;;;;;;;;-11.41;44.64;97945.63;6295714;28;19920;-68
2022/12/25 06:16:32;;;;;;;;;;;;;;;-11.31;44.78;97957.00;6295906;28;20374;-67
2022/12/25 06:19:36;;;;;;;;;;;;;;;-11.45;45.15;97953.94;6295731;28;19924;-69
2022/12/25 06:22:42;;;;;;;;;;;;;;;-11.14;44.30;97952.56;6295668;28;19920;-66
2022/12/25 06:25:45;;;;;;;;;;;;;;;-11.04;44.12;97951.22;6295533;28;19920;-68
2022/12/25 06:28:46;;;;;;;;;;;;;;;-10.89;44.07;97937.38;6295512;28;19920;-68
2022/12/25 06:31:55;;;;;;;;;;;;;;;-11.01;43.97;97941.16;6295590;28;19924;-68
2022/12/25 06:34:56;;;;;;;;;;;;;;;-10.84;43.72;97935.00;6295039;28;19942;-68
2022/12/25 06:38:00;;;;;;;;;;;;;;;-10.85;43.82;97933.28;6295595;28;20061;-68
2022/12/25 06:41:08;;;;;;;;;;;;;;;-10.89;44.10;97936.53;6295498;28;19924;-68
2022/12/25 06:44:10;;;;;;;;;;;;;;;-10.50;43.03;97931.97;6295494;28;19964;-68
2022/12/25 06:47:13;;;;;;;;;;;;;;;-10.41;42.53;97941.59;6300135;28;20405;-68
2022/12/25 06:50:16;;;;;;;;;;;;;;;-10.54;42.81;97934.34;6300240;28;19927;-67
2022/12/25 06:53:17;;;;;;;;;;;;;;;-10.57;43.18;97930.03;6299523;28;20408;-68
2022/12/25 06:56:22;;;;;;;;;;;;;;;-10.47;43.15;97936.31;6299702;28;19920;-67
2022/12/25 06:59:24;;;;;;;;;;;;;;;-10.52;43.53;97928.50;6299523;28;19920;-68
2022/12/25 07:02:28;;;;;;;;;;;;;;;-10.39;43.32;97929.78;6299416;28;20313;-68
2022/12/25 07:05:29;;;;;;;;;;;;;;;-10.26;42.69;97933.59;6297731;28;19920;-67
2022/12/25 07:08:30;;;;;;;;;;;;;;;-10.32;43.55;97928.31;6299592;28;19981;-68
2022/12/25 07:11:33;;;;;;;;;;;;;;;-10.23;43.12;97924.38;6299616;28;19920;-67
2022/12/25 07:14:38;;;;;;;;;;;;;;;-10.28;43.37;97932.69;6299365;28;19996;-67
2022/12/25 07:17:42;;;;;;;;;;;;;;;-10.08;42.63;97926.53;6299414;28;19920;-67
2022/12/25 07:20:43;;;;;;;;;;;;;;;-9.09;42.47;97927.88;6299317;28;20301;-68
2022/12/25 07:23:48;;;;;;;;;;;;;;;-3.85;35.87;97924.97;6299153;28;19920;-68
2022/12/25 07:26:50;;;;;;;;;;;;;;;0.64;29.59;97910.34;6299081;28;19927;-68
2022/12/25 07:29:51;;;;;;;;;;;;;;;3.12;27.52;97912.16;6299110;28;20479;-68
2022/12/25 07:32:55;;;;;;;;;;;;;;;5.67;26.49;97905.28;6299168;28;19920;-68
2022/12/25 07:35:56;;;;;;;;;;;;;;;8.67;25.47;97920.28;6298638;28;20405;-68
2022/12/25 07:39:00;;;;;;;;;;;;;;;11.04;23.54;97924.53;6298860;28;19927;-68
2022/12/25 07:42:04;;;;;;;;;;;;;;;12.25;22.10;97912.06;6298778;28;19920;-68
2022/12/25 07:45:06;;;;;;;;;;;;;;;12.73;21.84;97912.88;6298345;28;19920;-68
2022/12/25 07:48:07;;;;;;;;;;;;;;;13.35;21.84;97916.34;6298765;28;20402;-69
2022/12/25 07:51:16;;;;;;;;;;;;;;;13.90;18.33;97912.16;6298597;28;19927;-68
2022/12/25 07:54:22;;;;;;;;;;;;;;;14.43;21.14;97899.13;6298368;28;19927;-69
2022/12/25 07:57:26;;;;;;;;;;;;;;;14.91;19.70;97894.28;6297415;28;19924;-68
2022/12/25 08:00:31;;;;;;;;;;;;;;;16.01;18.15;97892.06;6297767;28;19920;-68
2022/12/25 08:03:35;;;;;;;;;;;;;;;16.75;19.19;97897.38;6297884;28;19920;-69
2022/12/25 08:06:38;;;;;;;;;;;;;;;16.90;19.55;97890.97;6296984;28;19924;-69
2022/12/25 08:09:41;;;;;;;;;;;;;;;16.80;18.47;97889.94;6298406;28;19939;-69
2022/12/25 08:12:42;;;;;;;;;;;;;;;16.87;16.77;97880.56;6296042;28;20043;-69
2022/12/25 08:15:50;;;;;;;;;;;;;;;17.12;18.55;97886.69;6298273;28;19920;-69
2022/12/25 08:18:56;;;;;;;;;;;;;;;18.30;15.91;97880.22;6298022;28;19920;-68
2022/12/25 08:21:58;;;;;;;;;;;;;;;17.56;15.04;97877.16;6297658;28;19928;-69
2022/12/25 08:25:01;;;;;;;;;;;;;;;16.52;17.48;97880.47;6297430;28;19920;-68
2022/12/25 08:28:03;;;;;;;;;;;;;;;15.75;15.52;97871.81;6297065;28;19920;-69
2022/12/25 08:31:08;;;;;;;;;;;;;;;14.48;15.65;97866.13;6297701;28;19920;-68
2022/12/25 08:34:12;;;;;;;;;;;;;;;13.41;14.29;97868.38;6297259;28;19974;-68
2022/12/25 08:37:13;;;;;;;;;;;;;;;12.33;14.99;97862.34;6297662;28;19920;-68
2022/12/25 08:40:16;;;;;;;;;;;;;;;12.30;15.17;97859.88;6297103;28;19920;-69
2022/12/25 08:43:20;;;;;;;;;;;;;;;13.61;16.04;97853.09;6296678;28;19943;-69
2022/12/25 08:46:24;;;;;;;;;;;;;;;15.04;15.14;97858.06;6297391;28;19920;-69
2022/12/25 08:49:27;;;;;;;;;;;;;;;14.65;13.24;97854.44;6296632;28;19943;-69
2022/12/25 08:52:28;;;;;;;;;;;;;;;13.96;13.99;97852.72;6296761;28;19927;-68
2022/12/25 08:55:30;;;;;;;;;;;;;;;13.88;15.69;97851.41;6297210;28;20300;-69
2022/12/25 08:58:32;;;;;;;;;;;;;;;12.89;14.47;97860.03;6296799;28;19920;-69
2022/12/25 09:01:36;;;;;;;;;;;;;;;12.27;14.51;97842.44;6296506;28;19920;-68
2022/12/25 09:04:37;;;;;;;;;;;;;;;11.80;14.34;97837.09;6296760;28;20385;-70
2022/12/25 09:07:41;;;;;;;;;;;;;;;11.18;15.05;97848.28;6294841;28;20378;-68
2022/12/25 09:10:42;;;;;;;;;;;;;;;10.17;14.91;97845.38;6296483;28;19920;-69
2022/12/25 09:13:46;;;;;;;;;;;;;;;9.41;15.82;97829.59;6296543;28;19924;-68
2022/12/25 09:16:49;;;;;;;;;;;;;;;9.69;15.20;97823.09;6296581;28;19920;-68
2022/12/25 09:19:50;;;;;;;;;;;;;;;9.99;15.20;97833.97;6295439;28;19927;-68
2022/12/25 09:22:59;;;;;;;;;;;;;;;11.12;16.08;97830.13;6296398;28;19920;-69
2022/12/25 09:26:02;;;;;;;;;;;;;;;11.78;14.90;97833.72;6296494;28;19920;-68
2022/12/25 09:29:06;;;;;;;;;;;;;;;12.07;14.47;97830.34;6295909;28;19950;-69
2022/12/25 09:32:09;;;;;;;;;;;;;;;11.83;13.88;97823.75;6295941;28;19928;-69
2022/12/25 09:35:10;;;;;;;;;;;;;;;11.16;15.17;97831.69;6295694;28;19920;-70
2022/12/25 09:38:13;;;;;;;;;;;;;;;11.88;15.34;97819.13;6296028;28;19920;-69
2022/12/25 09:41:42;;;;;;;;;;;;;;;12.84;14.93;97820.69;6295908;28;19924;-68
2022/12/25 09:45:04;;;;;;;;;;;;;;;13.92;14.79;97818.50;6272264;28;19920;-69
2022/12/25 09:48:11;;;;;;;;;;;;;;;14.12;15.24;97829.63;6295977;28;19920;-68
2022/12/25 09:51:15;;;;;;;;;;;;;;;13.80;14.71;97824.56;6295391;28;19928;-68
2022/12/25 09:54:28;;;;;;;;;;;;;;;12.67;14.73;97824.31;6295758;28;20301;-69
2022/12/25 09:57:31;;;;;;;;;;;;;;;11.84;15.92;97822.84;6295679;28;19950;-69
2022/12/25 10:00:39;;;;;;;;;;;;;;;10.90;15.15;97825.16;6294635;28;19943;-69
2022/12/25 10:03:49;;;;;;;;;;;;;;;9.74;16.03;97821.09;6295509;28;19920;-69
2022/12/25 10:07:01;;;;;;;;;;;;;;;8.77;16.28;97811.41;6295584;28;19920;-69
2022/12/25 10:10:31;;;;;;;;;;;;;;;5.80;17.76;97823.06;6295835;28;19920;-68
2022/12/25 10:13:44;;;;;;;;;;;;;;;1.44;21.56;97822.19;6295474;28;19928;-69
2022/12/25 10:17:07;;;;;;;;;;;;;;;-0.77;23.60;97820.75;6295684;28;19920;-69
2022/12/25 10:20:20;;;;;;;;;;;;;;;-2.78;26.28;97821.75;6298317;28;19967;-68
2022/12/25 10:23:35;;;;;;;;;;;;;;;-3.71;26.91;97819.63;6299923;28;19934;-69
2022/12/25 10:26:41;;;;;;;;;;;;;;;-4.20;27.46;97831.22;6300534;28;19975;-69
2022/12/25 10:29:51;;;;;;;;;;;;;;;-4.31;28.06;97826.00;6300617;28;19927;-68
2022/12/25 10:32:57;;;;;;;;;;;;;;;-5.06;29.27;97831.22;6300361;28;19932;-68
2022/12/25 10:36:01;;;;;;;;;;;;;;;-5.68;29.00;97826.13;6300306;28;20382;-69
2022/12/25 10:39:05;;;;;;;;;;;;;;;-5.89;29.65;97822.41;6299643;28;20809;-68
2022/12/25 10:42:17;;;;;;;;;;;;;;;-6.17;29.82;97826.28;6300348;28;19920;-67
2022/12/25 10:45:20;;;;;;;;;;;;;;;-6.23;31.15;97825.28;6300296;28;19920;-68
2022/12/25 10:48:23;;;;;;;;;;;;;;;-6.60;31.33;97822.09;6300101;28;20005;-69
2022/12/25 10:51:35;;;;;;;;;;;;;;;-6.41;32.86;97824.16;6299127;28;19920;-68
2022/12/25 10:54:36;;;;;;;;;;;;;;;-6.78;33.52;97827.75;6299867;28;20034;-69
2022/12/25 10:57:46;;;;;;;;;;;;;;;-7.27;34.33;97825.13;6299256;28;20006;-69
2022/12/25 11:00:56;;;;;;;;;;;;;;;-7.36;34.12;97819.81;6299046;28;19927;-70
2022/12/25 11:03:59;;;;;;;;;;;;;;;-7.62;33.73;97826.06;6299699;28;20062;-68
2022/12/25 11:07:25;;;;;;;;;;;;;;;-7.65;33.24;97831.97;6299804;28;19920;-68
2022/12/25 11:10:32;;;;;;;;;;;;;;;-7.61;33.31;97827.78;6299607;28;20301;-68
2022/12/25 11:13:35;;;;;;;;;;;;;;;-7.68;34.27;97831.91;6298960;28;19986;-68
2022/12/25 11:16:39;;;;;;;;;;;;;;;-7.86;34.61;97832.34;6297642;28;19975;-69
2022/12/25 11:19:50;;;;;;;;;;;;;;;-8.03;35.69;97838.78;6299147;28;19920;-68
2022/12/25 11:22:56;;;;;;;;;;;;;;;-8.20;34.86;97828.16;6299380;28;20013;-69
2022/12/25 11:26:05;;;;;;;;;;;;;;;-7.92;35.83;97827.97;6299341;28;19920;-69
2022/12/25 11:29:17;;;;;;;;;;;;;;;-8.24;36.68;97834.84;6298456;28;20401;-68
2022/12/25 11:32:44;;;;;;;;;;;;;;;-8.45;37.46;97829.28;6297962;28;19943;-68
2022/12/25 11:35:49;;;;;;;;;;;;;;;-8.46;37.12;97825.00;6299245;28;19920;-68
2022/12/25 11:38:52;;;;;;;;;;;;;;;-8.25;37.76;97822.06;6298875;28;19920;-69
2022/12/25 11:42:00;;;;;;;;;;;;;;;-8.77;37.79;97821.69;6298651;28;20293;-68
2022/12/25 11:45:06;;;;;;;;;;;;;;;-8.88;38.34;97812.88;6298366;28;19928;-68
2022/12/25 11:48:07;;;;;;;;;;;;;;;-8.95;38.22;97822.03;6297967;28;19927;-68
2022/12/25 11:51:08;;;;;;;;;;;;;;;-8.79;38.73;97818.22;6298634;28;20282;-69
2022/12/25 11:54:18;;;;;;;;;;;;;;;-8.75;39.17;97819.16;6297691;28;19928;-68
2022/12/25 11:57:21;;;;;;;;;;;;;;;-9.13;39.89;97817.31;6298149;28;19920;-68
2022/12/25 12:00:25;;;;;;;;;;;;;;;-9.09;39.97;97814.00;6297940;28;19955;-69
2022/12/25 12:03:32;;;;;;;;;;;;;;;-9.44;40.02;97824.94;6297965;28;19927;-68
2022/12/25 12:06:41;;;;;;;;;;;;;;;-9.57;40.24;97829.66;6297872;28;19927;-68
2022/12/25 12:10:00;;;;;;;;;;;;;;;-9.33;41.12;97828.66;6298405;28;20014;-67
2022/12/25 12:13:25;;;;;;;;;;;;;;;-9.62;41.52;97823.59;6297688;28;20282;-70
2022/12/25 12:16:27;;;;;;;;;;;;;;;-9.56;41.75;97828.84;6289571;28;19920;-69
2022/12/25 12:19:29;;;;;;;;;;;;;;;-9.66;41.71;97833.63;6296906;28;20382;-68
2022/12/25 12:22:30;;;;;;;;;;;;;;;-9.91;42.06;97832.03;6297395;28;20022;-69
2022/12/25 12:25:37;;;;;;;;;;;;;;;-9.79;42.24;97828.19;6297967;28;19920;-68
2022/12/25 12:28:44;;;;;;;;;;;;;;;-9.77;42.50;97820.56;6298110;28;19920;-67
2022/12/25 12:31:47;;;;;;;;;;;;;;;-10.02;42.18;97830.03;6296813;28;20258;-68
2022/12/25 12:34:51;;;;;;;;;;;;;;;-9.95;42.43;97836.16;6297044;28;20360;-68
2022/12/25 12:37:59;;;;;;;;;;;;;;;-10.02;42.34;97835.13;6297275;28;19920;-68
2022/12/25 12:41:01;;;;;;;;;;;;;;;-9.99;42.41;97834.31;6297504;28;19927;-68
2022/12/25 12:44:03;;;;;;;;;;;;;;;-10.26;42.68;97835.19;6296786;28;19927;-69
2022/12/25 12:47:25;;;;;;;;;;;;;;;-10.09;42.92;97840.81;6297350;28;19924;-67
2022/12/25 12:50:36;;;;;;;;;;;;;;;-9.94;42.94;97832.78;6297021;28;19920;-67
2022/12/25 12:53:41;;;;;;;;;;;;;;;-10.28;43.11;97830.91;6296139;28;19928;-68
2022/12/25 12:56:53;;;;;;;;;;;;;;;-10.35;43.18;97839.19;6296847;28;20018;-68
2022/12/25 12:59:57;;;;;;;;;;;;;;;-10.23;43.22;97836.97;6296958;28;19920;-67
2022/12/25 13:03:10;;;;;;;;;;;;;;;-9.96;43.09;97827.66;6296721;28;20006;-68
2022/12/25 13:06:23;;;;;;;;;;;;;;;-10.17;43.29;97821.91;6296839;28;19991;-68
2022/12/25 13:09:30;;;;;;;;;;;;;;;-10.08;42.70;97818.78;6296872;28;20317;-68
2022/12/25 13:12:30;;;;;;;;;;;;;;;-10.21;42.89;97822.63;6296235;28;19980;-68
2022/12/25 13:15:33;;;;;;;;;;;;;;;-10.19;43.11;97820.97;6294884;28;19924;-68
2022/12/25 13:18:38;;;;;;;;;;;;;;;-10.25;43.28;97833.50;6296488;28;20374;-68
2022/12/25 13:21:50;;;;;;;;;;;;;;;-10.52;43.55;97831.84;6295636;28;19920;-68
2022/12/25 13:25:03;;;;;;;;;;;;;;;-10.50;43.51;97835.31;6296022;28;19920;-69
2022/12/25 13:28:12;;;;;;;;;;;;;;;-10.57;43.67;97833.38;6296287;28;19920;-68
2022/12/25 13:31:20;;;;;;;;;;;;;;;-10.74;43.79;97829.41;6296018;28;19927;-68
2022/12/25 13:34:30;;;;;;;;;;;;;;;-10.58;43.60;97836.75;6296215;28;19974;-68
2022/12/25 13:37:34;;;;;;;;;;;;;;;-10.53;43.86;97840.31;6296169;28;19920;-68
2022/12/25 13:42:04;;;;;;;;;;;;;;;-10.59;43.74;97840.09;6296214;28;19920;-68
2022/12/25 13:44:22;;;;;;;;;;;;;;;-10.77;44.29;97844.56;6295635;28;20025;-69
2022/12/25 13:47:35;;;;;;;;;;;;;;;-11.06;44.60;97836.81;6296400;28;19997;-69
2022/12/25 13:50:43;;;;;;;;;;;;;;;-11.09;45.04;97841.78;6296063;28;19920;-68
2022/12/25 13:53:49;;;;;;;;;;;;;;;-11.09;44.72;97836.69;6295549;28;19920;-68
2022/12/25 13:56:53;;;;;;;;;;;;;;;-10.83;44.65;97845.22;6295994;28;19921;-68
2022/12/25 13:59:54;;;;;;;;;;;;;;;-11.00;44.64;97842.09;6295721;28;19920;-68
2022/12/25 14:02:55;;;;;;;;;;;;;;;-11.22;45.21;97837.06;6295387;28;19923;-67
2022/12/25 14:06:00;;;;;;;;;;;;;;;-11.46;45.25;97840.47;6295870;28;19924;-67
2022/12/25 14:09:05;;;;;;;;;;;;;;;-11.48;45.67;97837.00;6295702;28;20336;-67
2022/12/25 14:12:09;;;;;;;;;;;;;;;-11.62;45.21;97839.03;6295485;28;19920;-68
2022/12/25 14:15:14;;;;;;;;;;;;;;;-11.59;45.27;97848.44;6295825;28;20394;-68
2022/12/25 14:18:17;;;;;;;;;;;;;;;-11.59;45.44;97844.22;6294264;28;19920;-67
2022/12/25 14:21:39;;;;;;;;;;;;;;;-11.64;45.42;97830.47;6294856;28;19927;-68
2022/12/25 14:24:43;;;;;;;;;;;;;;;-11.74;45.51;97827.56;6295684;28;20412;-68
2022/12/25 14:27:47;;;;;;;;;;;;;;;-11.52;45.43;97832.59;6295706;28;19920;-69
2022/12/25 14:30:51;;;;;;;;;;;;;;;-11.44;45.57;97828.66;6295651;28;19920;-67
2022/12/25 14:33:55;;;;;;;;;;;;;;;-11.64;45.80;97824.53;6295489;28;20313;-68
2022/12/25 14:36:59;;;;;;;;;;;;;;;-11.56;45.72;97821.47;6295639;28;19924;-72
2022/12/25 14:40:20;;;;;;;;;;;;;;;-11.39;45.75;97822.09;6295447;28;19963;-69
2022/12/25 14:43:26;;;;;;;;;;;;;;;-11.42;45.76;97816.91;6295394;28;20406;-68
2022/12/25 14:46:30;;;;;;;;;;;;;;;-11.17;45.39;97808.47;6295320;28;19920;-68
2022/12/25 14:49:31;;;;;;;;;;;;;;;-11.21;45.34;97805.75;6295381;28;19920;-70
2022/12/25 14:52:41;;;;;;;;;;;;;;;-11.46;45.28;97810.00;6294716;28;20462;-68
2022/12/25 14:55:46;;;;;;;;;;;;;;;-11.50;45.74;97802.19;6294292;28;19920;-68
2022/12/25 14:58:54;;;;;;;;;;;;;;;-11.51;45.49;97808.97;6295190;28;20582;-68
2022/12/25 15:01:59;;;;;;;;;;;;;;;-11.53;45.59;97791.09;6294730;28;19927;-68
2022/12/25 15:05:03;;;;;;;;;;;;;;;-11.41;45.68;97803.38;6295243;28;19920;-68
2022/12/25 15:08:05;;;;;;;;;;;;;;;-11.57;45.53;97811.28;6298615;28;19957;-68
2022/12/25 15:11:07;;;;;;;;;;;;;;;-11.48;45.76;97811.59;6299219;28;20389;-68
2022/12/25 15:14:08;;;;;;;;;;;;;;;-11.17;45.64;97802.53;6299680;28;19920;-68
2022/12/25 15:17:25;;;;;;;;;;;;;;;-11.26;45.70;97802.19;6299664;28;19935;-68
2022/12/25 15:20:33;;;;;;;;;;;;;;;-11.43;46.16;97794.00;6299048;28;19923;-68
2022/12/25 15:23:34;;;;;;;;;;;;;;;-11.06;45.54;97791.06;6298962;28;19966;-69
2022/12/25 15:26:38;;;;;;;;;;;;;;;-11.25;46.00;97803.94;6299242;28;20251;-68
2022/12/25 15:29:41;;;;;;;;;;;;;;;-11.31;46.46;97805.44;6299147;28;19920;-70
2022/12/25 15:32:42;;;;;;;;;;;;;;;-11.44;47.05;97798.19;6299235;28;19920;-68
2022/12/25 15:35:43;;;;;;;;;;;;;;;-11.51;46.73;97808.97;6299099;28;19927;-69
2022/12/25 15:38:48;;;;;;;;;;;;;;;-11.85;47.29;97787.41;6298962;28;19920;-69
2022/12/25 15:42:09;;;;;;;;;;;;;;;-11.64;47.70;97791.53;6298552;28;19927;-68
2022/12/25 15:45:29;;;;;;;;;;;;;;;-11.64;47.97;97789.00;6298174;28;19920;-67
2022/12/25 15:48:34;;;;;;;;;;;;;;;-11.82;48.70;97779.03;6298900;28;19920;-69
2022/12/25 15:51:39;;;;;;;;;;;;;;;-11.87;49.09;97771.28;6298159;28;19920;-69
2022/12/25 15:54:40;;;;;;;;;;;;;;;-12.00;49.01;97789.38;6298390;28;19920;-69
2022/12/25 15:57:47;;;;;;;;;;;;;;;-12.25;48.93;97791.00;6298924;28;19920;-68
2022/12/25 16:00:49;;;;;;;;;;;;;;;-12.21;49.47;97780.16;6297987;28;19921;-68
2022/12/25 16:03:52;;;;;;;;;;;;;;;-12.21;49.15;97792.84;6298401;28;20301;-67
2022/12/25 16:06:54;;;;;;;;;;;;;;;-12.29;49.57;97791.69;6298253;28;19921;-69
2022/12/25 16:09:58;;;;;;;;;;;;;;;-12.62;49.73;97782.75;6298078;28;19924;-69
2022/12/25 16:12:59;;;;;;;;;;;;;;;-12.67;50.32;97777.50;6297600;28;20382;-68
2022/12/25 16:16:00;;;;;;;;;;;;;;;-12.82;50.47;97776.88;6297592;28;20013;-69
2022/12/25 16:19:01;;;;;;;;;;;;;;;-12.96;50.49;97783.94;6296056;28;20026;-69
2022/12/25 16:22:09;;;;;;;;;;;;;;;-13.02;50.78;97773.53;6297629;28;20073;-69
2022/12/25 16:25:15;;;;;;;;;;;;;;;-12.76;50.98;97775.47;6297638;28;19920;-69
2022/12/25 16:28:16;;;;;;;;;;;;;;;-12.87;51.12;97758.97;6297692;28;20004;-69
2022/12/25 16:31:28;;;;;;;;;;;;;;;-12.68;51.20;97771.59;6297937;28;19920;-69
2022/12/25 16:34:31;;;;;;;;;;;;;;;-12.89;51.39;97770.72;6297689;28;19924;-69
2022/12/25 16:37:33;;;;;;;;;;;;;;;-13.12;51.83;97767.25;6297609;28;19920;-68
2022/12/25 16:40:37;;;;;;;;;;;;;;;-13.19;52.06;97763.59;6297097;28;20298;-69
2022/12/25 16:43:41;;;;;;;;;;;;;;;-13.02;52.17;97748.19;6296268;28;20293;-69
2022/12/25 16:46:42;;;;;;;;;;;;;;;-13.05;52.81;97748.06;6297371;28;19920;-68
2022/12/25 16:49:44;;;;;;;;;;;;;;;-13.24;52.72;97747.34;6297609;28;20317;-68
2022/12/25 16:52:45;;;;;;;;;;;;;;;-13.31;52.95;97760.56;6296619;28;20317;-69
2022/12/25 16:55:49;;;;;;;;;;;;;;;-13.11;53.29;97758.81;6297084;28;20014;-71
2022/12/25 16:58:53;;;;;;;;;;;;;;;-13.32;53.13;97763.91;6296085;28;19920;-69
2022/12/25 17:01:54;;;;;;;;;;;;;;;-13.20;53.42;97771.13;6297096;28;19920;-69
2022/12/25 17:04:55;;;;;;;;;;;;;;;-13.21;53.05;97762.66;6296632;28;19920;-68
2022/12/25 17:07:58;;;;;;;;;;;;;;;-13.37;53.31;97765.38;6296956;28;19927;-69
2022/12/25 17:11:03;;;;;;;;;;;;;;;-13.33;53.69;97762.19;6296195;28;20002;-69
2022/12/25 17:14:06;;;;;;;;;;;;;;;-13.25;53.54;97768.38;6296510;28;19924;-68
2022/12/25 17:17:07;;;;;;;;;;;;;;;-13.27;53.97;97769.16;6296706;28;20374;-68
2022/12/25 17:20:09;;;;;;;;;;;;;;;-13.29;53.88;97758.97;6296553;28;19979;-69
2022/12/25 17:23:12;;;;;;;;;;;;;;;-13.04;53.65;97753.22;6295760;28;19920;-69
2022/12/25 17:26:16;;;;;;;;;;;;;;;-13.16;54.05;97766.25;6295253;28;20326;-68
2022/12/25 17:29:17;;;;;;;;;;;;;;;-13.09;53.78;97758.91;6295613;28;19916;-69
2022/12/25 17:32:18;;;;;;;;;;;;;;;-13.23;53.59;97763.38;6295858;28;19928;-69
2022/12/25 17:35:23;;;;;;;;;;;;;;;-13.31;53.69;97767.28;6296240;28;19920;-69
2022/12/25 17:38:24;;;;;;;;;;;;;;;-13.29;54.13;97769.09;6296322;28;19916;-71
2022/12/25 17:41:25;;;;;;;;;;;;;;;-12.98;53.86;97768.66;6296222;28;20058;-69